KFFT/FFT METAR and TAF weather

Enter ICAO airport designator
Station Type Date Time Source
KFFT METAR 2021/07/28 18:53 UTC NOAA

KFFT 281853Z AUTO 27005KT 10SM CLR 32/20 A3006 RMK AO2 SLP171 T03170200


Station Type Date Time Source
KFFT Decoded METAR 2021/07/28 18:53 UTC NOAA

FRANKFORT CAPITAL CITY AIRPORT , KY, United States (KFFT) 38-11N 84-54W 236M
Jul 28, 2021 - 02:53 PM EDT / 2021.07.28 1853 UTC
Wind: from the W (270 degrees) at 6 MPH (5 KT):0
Visibility: 10 mile(s):0
Sky conditions: clear
Temperature: 89.1 F (31.7 C)
Dew Point: 68.0 F (20.0 C)
Relative Humidity: 49%
Pressure (altimeter): 30.06 in. Hg (1017 hPa)
ob: KFFT 281853Z AUTO 27005KT 10SM CLR 32/20 A3006 RMK AO2 SLP171 T03170200
cycle: 19

Station Type Date Time Source
KFFT TAF UTC NOAA

Error!

Example: see airport list